sensor_id;sensor_type;location;lat;lon;timestamp;P1;durP1;ratioP1;P2;durP2;ratioP2
35644;SDS011;21764;52.042;6.830;2023-05-09T00:01:12;26.05;;;18.02;;
35644;SDS011;21764;52.042;6.830;2023-05-09T00:06:13;26.13;;;18.45;;
35644;SDS011;21764;52.042;6.830;2023-05-09T00:11:14;23.95;;;17.63;;
35644;SDS011;21764;52.042;6.830;2023-05-09T00:16:15;24.75;;;18.33;;
35644;SDS011;21764;52.042;6.830;2023-05-09T00:21:16;24.25;;;19.35;;
35644;SDS011;21764;52.042;6.830;2023-05-09T00:26:17;24.13;;;18.42;;
35644;SDS011;21764;52.042;6.830;2023-05-09T00:31:18;30.10;;;19.02;;
35644;SDS011;21764;52.042;6.830;2023-05-09T00:36:19;25.27;;;19.40;;
35644;SDS011;21764;52.042;6.830;2023-05-09T00:41:20;25.60;;;19.80;;
35644;SDS011;21764;52.042;6.830;2023-05-09T00:46:20;30.00;;;20.33;;
35644;SDS011;21764;52.042;6.830;2023-05-09T00:51:22;25.90;;;20.65;;
35644;SDS011;21764;52.042;6.830;2023-05-09T00:56:23;28.45;;;20.65;;
35644;SDS011;21764;52.042;6.830;2023-05-09T01:01:24;25.95;;;21.02;;
35644;SDS011;21764;52.042;6.830;2023-05-09T01:11:41;28.67;;;20.77;;
35644;SDS011;21764;52.042;6.830;2023-05-09T01:22:12;27.45;;;20.80;;
35644;SDS011;21764;52.042;6.830;2023-05-09T01:32:23;25.27;;;21.10;;
35644;SDS011;21764;52.042;6.830;2023-05-09T01:37:34;25.60;;;19.23;;
35644;SDS011;21764;52.042;6.830;2023-05-09T01:43:20;26.10;;;20.33;;
35644;SDS011;21764;52.042;6.830;2023-05-09T01:48:05;28.38;;;21.92;;
35644;SDS011;21764;52.042;6.830;2023-05-09T01:53:07;31.05;;;22.27;;
35644;SDS011;21764;52.042;6.830;2023-05-09T01:58:10;30.85;;;23.38;;
35644;SDS011;21764;52.042;6.830;2023-05-09T02:03:12;27.85;;;22.27;;
35644;SDS011;21764;52.042;6.830;2023-05-09T02:08:14;30.00;;;23.27;;
35644;SDS011;21764;52.042;6.830;2023-05-09T02:13:17;36.60;;;23.85;;
35644;SDS011;21764;52.042;6.830;2023-05-09T02:18:18;32.30;;;23.17;;
35644;SDS011;21764;52.042;6.830;2023-05-09T02:23:19;32.28;;;22.58;;
35644;SDS011;21764;52.042;6.830;2023-05-09T02:28:20;35.35;;;24.85;;
35644;SDS011;21764;52.042;6.830;2023-05-09T02:33:22;31.00;;;23.83;;
35644;SDS011;21764;52.042;6.830;2023-05-09T02:38:23;33.95;;;25.30;;
35644;SDS011;21764;52.042;6.830;2023-05-09T02:43:26;31.55;;;25.00;;
35644;SDS011;21764;52.042;6.830;2023-05-09T02:48:26;29.83;;;23.38;;
35644;SDS011;21764;52.042;6.830;2023-05-09T02:53:27;30.42;;;23.08;;
35644;SDS011;21764;52.042;6.830;2023-05-09T02:58:28;29.33;;;23.33;;
35644;SDS011;21764;52.042;6.830;2023-05-09T03:03:29;35.28;;;23.98;;
35644;SDS011;21764;52.042;6.830;2023-05-09T03:13:34;34.30;;;24.58;;
35644;SDS011;21764;52.042;6.830;2023-05-09T03:18:34;37.65;;;26.10;;
35644;SDS011;21764;52.042;6.830;2023-05-09T03:23:35;28.60;;;23.92;;
35644;SDS011;21764;52.042;6.830;2023-05-09T03:28:36;32.80;;;24.45;;
35644;SDS011;21764;52.042;6.830;2023-05-09T03:33:37;33.05;;;25.45;;
35644;SDS011;21764;52.042;6.830;2023-05-09T03:38:38;35.33;;;24.75;;
35644;SDS011;21764;52.042;6.830;2023-05-09T03:43:38;35.33;;;27.77;;
35644;SDS011;21764;52.042;6.830;2023-05-09T03:48:39;38.35;;;27.23;;
35644;SDS011;21764;52.042;6.830;2023-05-09T03:53:40;36.58;;;27.90;;
35644;SDS011;21764;52.042;6.830;2023-05-09T03:58:40;38.15;;;27.98;;
35644;SDS011;21764;52.042;6.830;2023-05-09T04:03:41;40.92;;;27.65;;
35644;SDS011;21764;52.042;6.830;2023-05-09T04:08:42;35.60;;;27.83;;
35644;SDS011;21764;52.042;6.830;2023-05-09T04:13:42;39.40;;;27.77;;
35644;SDS011;21764;52.042;6.830;2023-05-09T04:18:43;45.35;;;29.23;;
35644;SDS011;21764;52.042;6.830;2023-05-09T04:23:44;38.47;;;28.67;;
35644;SDS011;21764;52.042;6.830;2023-05-09T04:28:44;38.33;;;29.15;;
35644;SDS011;21764;52.042;6.830;2023-05-09T04:33:45;39.50;;;29.58;;
35644;SDS011;21764;52.042;6.830;2023-05-09T04:38:46;39.63;;;30.55;;
35644;SDS011;21764;52.042;6.830;2023-05-09T04:43:46;42.55;;;30.45;;
35644;SDS011;21764;52.042;6.830;2023-05-09T04:48:47;38.95;;;30.00;;
35644;SDS011;21764;52.042;6.830;2023-05-09T04:53:48;43.33;;;31.50;;
35644;SDS011;21764;52.042;6.830;2023-05-09T04:58:48;43.28;;;31.00;;
35644;SDS011;21764;52.042;6.830;2023-05-09T05:03:49;43.72;;;31.08;;
35644;SDS011;21764;52.042;6.830;2023-05-09T05:08:49;40.83;;;30.95;;
35644;SDS011;21764;52.042;6.830;2023-05-09T05:13:50;42.88;;;30.52;;
35644;SDS011;21764;52.042;6.830;2023-05-09T05:18:51;44.22;;;30.88;;
35644;SDS011;21764;52.042;6.830;2023-05-09T05:23:51;42.90;;;31.50;;
35644;SDS011;21764;52.042;6.830;2023-05-09T05:28:52;46.38;;;32.00;;
35644;SDS011;21764;52.042;6.830;2023-05-09T05:33:54;52.15;;;32.53;;
35644;SDS011;21764;52.042;6.830;2023-05-09T05:38:55;50.38;;;33.47;;
35644;SDS011;21764;52.042;6.830;2023-05-09T05:43:56;51.22;;;33.28;;
35644;SDS011;21764;52.042;6.830;2023-05-09T05:48:57;55.25;;;35.30;;
35644;SDS011;21764;52.042;6.830;2023-05-09T05:53:57;62.83;;;36.75;;
35644;SDS011;21764;52.042;6.830;2023-05-09T05:58:58;51.88;;;34.05;;
35644;SDS011;21764;52.042;6.830;2023-05-09T06:03:59;63.53;;;37.38;;
35644;SDS011;21764;52.042;6.830;2023-05-09T06:08:59;71.53;;;39.35;;
35644;SDS011;21764;52.042;6.830;2023-05-09T06:14:00;72.95;;;41.30;;
35644;SDS011;21764;52.042;6.830;2023-05-09T06:19:00;74.65;;;42.63;;
35644;SDS011;21764;52.042;6.830;2023-05-09T06:24:01;77.88;;;40.88;;
35644;SDS011;21764;52.042;6.830;2023-05-09T06:29:02;72.38;;;40.72;;
35644;SDS011;21764;52.042;6.830;2023-05-09T06:34:05;72.50;;;43.33;;
35644;SDS011;21764;52.042;6.830;2023-05-09T06:39:06;71.90;;;40.22;;
35644;SDS011;21764;52.042;6.830;2023-05-09T06:44:07;69.38;;;39.67;;
35644;SDS011;21764;52.042;6.830;2023-05-09T06:49:07;67.75;;;39.53;;
35644;SDS011;21764;52.042;6.830;2023-05-09T06:54:08;73.38;;;38.33;;
35644;SDS011;21764;52.042;6.830;2023-05-09T06:59:09;61.60;;;35.83;;
35644;SDS011;21764;52.042;6.830;2023-05-09T07:04:12;68.15;;;37.13;;
35644;SDS011;21764;52.042;6.830;2023-05-09T07:09:12;71.72;;;35.80;;
35644;SDS011;21764;52.042;6.830;2023-05-09T07:14:16;61.90;;;35.40;;
35644;SDS011;21764;52.042;6.830;2023-05-09T07:19:17;68.13;;;36.97;;
35644;SDS011;21764;52.042;6.830;2023-05-09T07:24:17;61.38;;;36.72;;
35644;SDS011;21764;52.042;6.830;2023-05-09T07:29:18;67.28;;;37.13;;
35644;SDS011;21764;52.042;6.830;2023-05-09T07:34:19;68.32;;;38.15;;
35644;SDS011;21764;52.042;6.830;2023-05-09T07:39:20;61.88;;;38.10;;
35644;SDS011;21764;52.042;6.830;2023-05-09T07:44:20;69.95;;;40.38;;
35644;SDS011;21764;52.042;6.830;2023-05-09T07:49:21;64.50;;;37.85;;
35644;SDS011;21764;52.042;6.830;2023-05-09T07:54:22;71.40;;;40.97;;
35644;SDS011;21764;52.042;6.830;2023-05-09T07:59:22;72.32;;;41.50;;
35644;SDS011;21764;52.042;6.830;2023-05-09T08:04:23;71.70;;;41.22;;
35644;SDS011;21764;52.042;6.830;2023-05-09T08:09:24;69.05;;;40.05;;
35644;SDS011;21764;52.042;6.830;2023-05-09T08:14:25;75.10;;;41.35;;
35644;SDS011;21764;52.042;6.830;2023-05-09T08:19:26;77.68;;;42.13;;
35644;SDS011;21764;52.042;6.830;2023-05-09T08:24:26;81.32;;;44.40;;
35644;SDS011;21764;52.042;6.830;2023-05-09T08:29:27;98.82;;;52.97;;
35644;SDS011;21764;52.042;6.830;2023-05-09T08:34:28;115.95;;;58.53;;
35644;SDS011;21764;52.042;6.830;2023-05-09T08:44:34;140.10;;;68.70;;
35644;SDS011;21764;52.042;6.830;2023-05-09T08:49:35;139.27;;;69.70;;
35644;SDS011;21764;52.042;6.830;2023-05-09T08:54:35;161.70;;;80.93;;
35644;SDS011;21764;52.042;6.830;2023-05-09T08:59:39;157.85;;;79.15;;
35644;SDS011;21764;52.042;6.830;2023-05-09T09:04:41;160.17;;;79.07;;
35644;SDS011;21764;52.042;6.830;2023-05-09T09:09:47;146.65;;;76.45;;
35644;SDS011;21764;52.042;6.830;2023-05-09T09:14:49;110.05;;;59.80;;
35644;SDS011;21764;52.042;6.830;2023-05-09T09:19:57;107.10;;;60.80;;
35644;SDS011;21764;52.042;6.830;2023-05-09T09:25:03;99.93;;;57.65;;
35644;SDS011;21764;52.042;6.830;2023-05-09T09:30:08;92.85;;;57.42;;
35644;SDS011;21764;52.042;6.830;2023-05-09T09:35:10;94.15;;;59.65;;
35644;SDS011;21764;52.042;6.830;2023-05-09T09:40:11;92.68;;;61.30;;
35644;SDS011;21764;52.042;6.830;2023-05-09T09:45:15;93.97;;;61.17;;
35644;SDS011;21764;52.042;6.830;2023-05-09T09:50:17;95.75;;;59.83;;
35644;SDS011;21764;52.042;6.830;2023-05-09T09:55:19;107.35;;;62.28;;
35644;SDS011;21764;52.042;6.830;2023-05-09T10:00:25;82.18;;;56.10;;
35644;SDS011;21764;52.042;6.830;2023-05-09T10:05:27;87.43;;;54.60;;
35644;SDS011;21764;52.042;6.830;2023-05-09T10:10:30;86.22;;;56.83;;
35644;SDS011;21764;52.042;6.830;2023-05-09T10:15:32;74.00;;;49.85;;
35644;SDS011;21764;52.042;6.830;2023-05-09T10:20:36;73.13;;;51.17;;
35644;SDS011;21764;52.042;6.830;2023-05-09T10:25:53;70.30;;;50.28;;
35644;SDS011;21764;52.042;6.830;2023-05-09T10:31:00;70.35;;;46.90;;
35644;SDS011;21764;52.042;6.830;2023-05-09T10:36:11;59.30;;;43.00;;
35644;SDS011;21764;52.042;6.830;2023-05-09T10:41:17;39.28;;;29.77;;
35644;SDS011;21764;52.042;6.830;2023-05-09T10:46:21;32.70;;;25.90;;
35644;SDS011;21764;52.042;6.830;2023-05-09T10:51:22;39.08;;;27.48;;
35644;SDS011;21764;52.042;6.830;2023-05-09T10:56:30;39.85;;;27.23;;
35644;SDS011;21764;52.042;6.830;2023-05-09T11:01:35;31.88;;;23.88;;
35644;SDS011;21764;52.042;6.830;2023-05-09T11:06:39;28.95;;;19.45;;
35644;SDS011;21764;52.042;6.830;2023-05-09T11:11:49;17.40;;;13.48;;
35644;SDS011;21764;52.042;6.830;2023-05-09T11:16:58;19.48;;;11.95;;
35644;SDS011;21764;52.042;6.830;2023-05-09T11:22:00;14.75;;;10.60;;
35644;SDS011;21764;52.042;6.830;2023-05-09T11:32:13;14.63;;;9.82;;
35644;SDS011;21764;52.042;6.830;2023-05-09T11:37:15;11.02;;;6.60;;
35644;SDS011;21764;52.042;6.830;2023-05-09T11:42:17;10.07;;;7.13;;
35644;SDS011;21764;52.042;6.830;2023-05-09T11:47:18;10.88;;;6.60;;
35644;SDS011;21764;52.042;6.830;2023-05-09T11:52:20;13.60;;;6.95;;
35644;SDS011;21764;52.042;6.830;2023-05-09T11:57:21;9.02;;;5.80;;
35644;SDS011;21764;52.042;6.830;2023-05-09T12:02:22;9.02;;;6.90;;
35644;SDS011;21764;52.042;6.830;2023-05-09T12:07:23;11.40;;;6.82;;
35644;SDS011;21764;52.042;6.830;2023-05-09T12:12:24;12.65;;;7.05;;
35644;SDS011;21764;52.042;6.830;2023-05-09T12:17:24;14.00;;;6.63;;
35644;SDS011;21764;52.042;6.830;2023-05-09T12:22:25;11.05;;;7.47;;
35644;SDS011;21764;52.042;6.830;2023-05-09T12:27:28;13.82;;;9.45;;
35644;SDS011;21764;52.042;6.830;2023-05-09T12:32:29;20.88;;;14.93;;
35644;SDS011;21764;52.042;6.830;2023-05-09T12:37:31;21.98;;;15.10;;
35644;SDS011;21764;52.042;6.830;2023-05-09T12:42:32;24.85;;;15.88;;
35644;SDS011;21764;52.042;6.830;2023-05-09T12:47:34;21.45;;;14.77;;
35644;SDS011;21764;52.042;6.830;2023-05-09T12:52:38;22.90;;;14.30;;
35644;SDS011;21764;52.042;6.830;2023-05-09T12:57:41;24.45;;;12.80;;
35644;SDS011;21764;52.042;6.830;2023-05-09T13:02:42;17.83;;;10.65;;
35644;SDS011;21764;52.042;6.830;2023-05-09T13:07:50;15.40;;;10.45;;
35644;SDS011;21764;52.042;6.830;2023-05-09T13:12:51;17.15;;;10.38;;
35644;SDS011;21764;52.042;6.830;2023-05-09T13:17:52;18.60;;;11.38;;
35644;SDS011;21764;52.042;6.830;2023-05-09T13:22:53;17.65;;;12.13;;
35644;SDS011;21764;52.042;6.830;2023-05-09T13:27:53;16.55;;;11.38;;
35644;SDS011;21764;52.042;6.830;2023-05-09T13:32:54;17.55;;;12.77;;
35644;SDS011;21764;52.042;6.830;2023-05-09T13:37:55;16.05;;;12.55;;
35644;SDS011;21764;52.042;6.830;2023-05-09T13:42:57;19.35;;;13.27;;
35644;SDS011;21764;52.042;6.830;2023-05-09T13:47:58;19.02;;;13.80;;
35644;SDS011;21764;52.042;6.830;2023-05-09T13:52:59;20.83;;;15.27;;
35644;SDS011;21764;52.042;6.830;2023-05-09T13:57:59;22.08;;;16.42;;
35644;SDS011;21764;52.042;6.830;2023-05-09T14:03:00;22.83;;;17.35;;
35644;SDS011;21764;52.042;6.830;2023-05-09T14:08:02;30.23;;;19.20;;
35644;SDS011;21764;52.042;6.830;2023-05-09T14:13:02;24.00;;;20.05;;
35644;SDS011;21764;52.042;6.830;2023-05-09T14:18:03;31.55;;;20.38;;
35644;SDS011;21764;52.042;6.830;2023-05-09T14:23:04;28.02;;;22.33;;
35644;SDS011;21764;52.042;6.830;2023-05-09T14:28:04;28.67;;;20.58;;
35644;SDS011;21764;52.042;6.830;2023-05-09T14:33:08;26.00;;;21.13;;
35644;SDS011;21764;52.042;6.830;2023-05-09T14:38:09;27.20;;;20.40;;
35644;SDS011;21764;52.042;6.830;2023-05-09T14:43:11;25.08;;;19.77;;
35644;SDS011;21764;52.042;6.830;2023-05-09T14:48:12;22.75;;;18.13;;
35644;SDS011;21764;52.042;6.830;2023-05-09T14:53:13;26.70;;;18.23;;
35644;SDS011;21764;52.042;6.830;2023-05-09T14:58:14;17.45;;;15.63;;
35644;SDS011;21764;52.042;6.830;2023-05-09T15:03:16;17.55;;;14.57;;
35644;SDS011;21764;52.042;6.830;2023-05-09T15:08:17;23.42;;;15.82;;
35644;SDS011;21764;52.042;6.830;2023-05-09T15:13:18;19.20;;;15.98;;
35644;SDS011;21764;52.042;6.830;2023-05-09T15:18:18;18.17;;;14.50;;
35644;SDS011;21764;52.042;6.830;2023-05-09T15:23:20;17.42;;;13.15;;
35644;SDS011;21764;52.042;6.830;2023-05-09T15:28:22;10.90;;;8.85;;
35644;SDS011;21764;52.042;6.830;2023-05-09T15:33:23;7.55;;;6.72;;
35644;SDS011;21764;52.042;6.830;2023-05-09T15:38:25;7.78;;;6.97;;
35644;SDS011;21764;52.042;6.830;2023-05-09T15:43:26;8.70;;;7.32;;
35644;SDS011;21764;52.042;6.830;2023-05-09T15:48:26;12.45;;;7.80;;
35644;SDS011;21764;52.042;6.830;2023-05-09T15:53:27;9.50;;;6.78;;
35644;SDS011;21764;52.042;6.830;2023-05-09T15:58:28;7.75;;;6.95;;
35644;SDS011;21764;52.042;6.830;2023-05-09T16:03:29;7.13;;;6.35;;
35644;SDS011;21764;52.042;6.830;2023-05-09T16:08:30;7.10;;;6.40;;
35644;SDS011;21764;52.042;6.830;2023-05-09T16:13:31;5.25;;;4.75;;
35644;SDS011;21764;52.042;6.830;2023-05-09T16:18:33;4.90;;;4.40;;
35644;SDS011;21764;52.042;6.830;2023-05-09T16:23:33;9.88;;;3.38;;
35644;SDS011;21764;52.042;6.830;2023-05-09T16:28:34;2.50;;;2.17;;
35644;SDS011;21764;52.042;6.830;2023-05-09T16:33:34;2.38;;;1.75;;
35644;SDS011;21764;52.042;6.830;2023-05-09T16:38:35;2.20;;;1.70;;
35644;SDS011;21764;52.042;6.830;2023-05-09T16:43:36;2.15;;;1.55;;
35644;SDS011;21764;52.042;6.830;2023-05-09T16:48:37;7.45;;;1.90;;
35644;SDS011;21764;52.042;6.830;2023-05-09T16:53:37;2.70;;;1.70;;
35644;SDS011;21764;52.042;6.830;2023-05-09T16:58:38;2.17;;;1.80;;
35644;SDS011;21764;52.042;6.830;2023-05-09T17:03:39;1.60;;;1.40;;
35644;SDS011;21764;52.042;6.830;2023-05-09T17:08:39;3.85;;;1.60;;
35644;SDS011;21764;52.042;6.830;2023-05-09T17:13:40;3.33;;;2.10;;
35644;SDS011;21764;52.042;6.830;2023-05-09T17:18:44;3.15;;;2.60;;
35644;SDS011;21764;52.042;6.830;2023-05-09T17:23:46;6.13;;;2.55;;
35644;SDS011;21764;52.042;6.830;2023-05-09T17:28:47;5.78;;;2.80;;
35644;SDS011;21764;52.042;6.830;2023-05-09T17:33:48;4.25;;;3.33;;
35644;SDS011;21764;52.042;6.830;2023-05-09T17:38:49;4.85;;;4.03;;
35644;SDS011;21764;52.042;6.830;2023-05-09T17:43:50;4.43;;;3.65;;
35644;SDS011;21764;52.042;6.830;2023-05-09T17:48:51;4.47;;;3.80;;
35644;SDS011;21764;52.042;6.830;2023-05-09T17:53:52;4.97;;;4.35;;
35644;SDS011;21764;52.042;6.830;2023-05-09T17:58:52;5.50;;;4.55;;
35644;SDS011;21764;52.042;6.830;2023-05-09T18:03:53;5.30;;;4.80;;
35644;SDS011;21764;52.042;6.830;2023-05-09T18:08:54;7.30;;;5.20;;
35644;SDS011;21764;52.042;6.830;2023-05-09T18:13:54;6.88;;;5.00;;
35644;SDS011;21764;52.042;6.830;2023-05-09T18:18:55;6.28;;;4.57;;
35644;SDS011;21764;52.042;6.830;2023-05-09T18:23:58;4.68;;;4.25;;
35644;SDS011;21764;52.042;6.830;2023-05-09T18:28:58;4.90;;;4.25;;
35644;SDS011;21764;52.042;6.830;2023-05-09T18:33:59;7.72;;;4.88;;
35644;SDS011;21764;52.042;6.830;2023-05-09T18:39:00;10.07;;;4.68;;
35644;SDS011;21764;52.042;6.830;2023-05-09T18:44:00;5.30;;;4.43;;
35644;SDS011;21764;52.042;6.830;2023-05-09T18:49:01;7.60;;;4.38;;
35644;SDS011;21764;52.042;6.830;2023-05-09T18:54:03;8.18;;;6.72;;
35644;SDS011;21764;52.042;6.830;2023-05-09T18:59:06;6.82;;;5.93;;
35644;SDS011;21764;52.042;6.830;2023-05-09T19:04:10;7.93;;;6.20;;
35644;SDS011;21764;52.042;6.830;2023-05-09T19:09:11;6.88;;;6.18;;
35644;SDS011;21764;52.042;6.830;2023-05-09T19:14:12;9.45;;;5.65;;
35644;SDS011;21764;52.042;6.830;2023-05-09T19:19:13;9.70;;;6.03;;
35644;SDS011;21764;52.042;6.830;2023-05-09T19:24:13;8.45;;;7.10;;
35644;SDS011;21764;52.042;6.830;2023-05-09T19:29:14;9.02;;;7.00;;
35644;SDS011;21764;52.042;6.830;2023-05-09T19:34:15;11.95;;;7.25;;
35644;SDS011;21764;52.042;6.830;2023-05-09T19:39:15;12.88;;;8.13;;
35644;SDS011;21764;52.042;6.830;2023-05-09T19:44:16;11.90;;;8.98;;
35644;SDS011;21764;52.042;6.830;2023-05-09T19:49:17;9.52;;;8.52;;
35644;SDS011;21764;52.042;6.830;2023-05-09T19:54:18;14.77;;;9.05;;
35644;SDS011;21764;52.042;6.830;2023-05-09T19:59:18;11.35;;;8.82;;
35644;SDS011;21764;52.042;6.830;2023-05-09T20:04:20;10.70;;;8.85;;
35644;SDS011;21764;52.042;6.830;2023-05-09T20:09:21;14.32;;;10.05;;
35644;SDS011;21764;52.042;6.830;2023-05-09T20:14:21;11.57;;;9.07;;
35644;SDS011;21764;52.042;6.830;2023-05-09T20:19:22;10.23;;;9.07;;
35644;SDS011;21764;52.042;6.830;2023-05-09T20:24:23;14.20;;;8.27;;
35644;SDS011;21764;52.042;6.830;2023-05-09T20:29:23;6.13;;;5.53;;
35644;SDS011;21764;52.042;6.830;2023-05-09T20:34:24;7.05;;;6.32;;
35644;SDS011;21764;52.042;6.830;2023-05-09T20:39:26;7.82;;;6.13;;
35644;SDS011;21764;52.042;6.830;2023-05-09T20:44:27;7.72;;;6.53;;
35644;SDS011;21764;52.042;6.830;2023-05-09T20:49:27;9.82;;;7.18;;
35644;SDS011;21764;52.042;6.830;2023-05-09T20:54:28;8.00;;;6.60;;
35644;SDS011;21764;52.042;6.830;2023-05-09T20:59:29;10.70;;;8.23;;
35644;SDS011;21764;52.042;6.830;2023-05-09T21:04:30;10.88;;;9.77;;
35644;SDS011;21764;52.042;6.830;2023-05-09T21:09:31;12.10;;;10.00;;
35644;SDS011;21764;52.042;6.830;2023-05-09T21:14:31;17.70;;;11.02;;
35644;SDS011;21764;52.042;6.830;2023-05-09T21:19:32;11.95;;;10.75;;
35644;SDS011;21764;52.042;6.830;2023-05-09T21:24:33;18.17;;;9.90;;
35644;SDS011;21764;52.042;6.830;2023-05-09T21:29:34;10.90;;;9.80;;
35644;SDS011;21764;52.042;6.830;2023-05-09T21:34:34;11.57;;;9.40;;
35644;SDS011;21764;52.042;6.830;2023-05-09T21:39:35;11.80;;;9.38;;
35644;SDS011;21764;52.042;6.830;2023-05-09T21:44:35;12.32;;;9.57;;
35644;SDS011;21764;52.042;6.830;2023-05-09T21:49:36;11.05;;;9.80;;
35644;SDS011;21764;52.042;6.830;2023-05-09T21:54:37;13.23;;;9.80;;
35644;SDS011;21764;52.042;6.830;2023-05-09T21:59:38;14.27;;;9.70;;
35644;SDS011;21764;52.042;6.830;2023-05-09T22:04:38;12.25;;;9.80;;
35644;SDS011;21764;52.042;6.830;2023-05-09T22:09:39;10.32;;;8.40;;
35644;SDS011;21764;52.042;6.830;2023-05-09T22:14:40;11.82;;;8.35;;
35644;SDS011;21764;52.042;6.830;2023-05-09T22:19:41;10.80;;;8.13;;
35644;SDS011;21764;52.042;6.830;2023-05-09T22:24:42;8.13;;;7.30;;
35644;SDS011;21764;52.042;6.830;2023-05-09T22:29:42;8.07;;;7.03;;
35644;SDS011;21764;52.042;6.830;2023-05-09T22:34:47;10.07;;;7.22;;
35644;SDS011;21764;52.042;6.830;2023-05-09T22:39:48;9.35;;;7.25;;
35644;SDS011;21764;52.042;6.830;2023-05-09T22:44:49;10.75;;;7.30;;
35644;SDS011;21764;52.042;6.830;2023-05-09T22:49:49;10.32;;;8.20;;
35644;SDS011;21764;52.042;6.830;2023-05-09T22:54:50;9.70;;;7.40;;
35644;SDS011;21764;52.042;6.830;2023-05-09T22:59:51;9.65;;;7.47;;
35644;SDS011;21764;52.042;6.830;2023-05-09T23:04:52;10.52;;;8.52;;
35644;SDS011;21764;52.042;6.830;2023-05-09T23:09:53;12.20;;;9.75;;
35644;SDS011;21764;52.042;6.830;2023-05-09T23:14:53;15.85;;;11.70;;
35644;SDS011;21764;52.042;6.830;2023-05-09T23:19:54;19.95;;;13.30;;
35644;SDS011;21764;52.042;6.830;2023-05-09T23:24:55;21.95;;;15.88;;
35644;SDS011;21764;52.042;6.830;2023-05-09T23:29:56;18.95;;;14.52;;
35644;SDS011;21764;52.042;6.830;2023-05-09T23:34:57;26.23;;;17.65;;
35644;SDS011;21764;52.042;6.830;2023-05-09T23:39:57;23.10;;;16.65;;
35644;SDS011;21764;52.042;6.830;2023-05-09T23:44:58;27.27;;;18.00;;
35644;SDS011;21764;52.042;6.830;2023-05-09T23:49:58;27.42;;;19.02;;
35644;SDS011;21764;52.042;6.830;2023-05-09T23:54:59;20.23;;;14.27;;
